Aeroporto :
LOGIN :

Iscrizione | Disclaimer

   EN    FR    IT 

 










Sommario :    VFR   VFR Marginale   IFR   IFR Intensivo   IFR Molto Intensivo
Visibilità : 
Base nubi : 
>= 8 km
>= 3000ft
5 / 8 km
1000 / 3000 ft
1500m / 5 km
500 / 1000 ft
800 / 1500m
200 / 500 ft
< 800m
< 200 ft
Simboli :   Temporali  Nebbia  Neve Forte  Precipitazioni Forti  Vento > 20 kt
SIGMETs :   Varie  Temporali  Ghiacco  Turbolenza  Onda orograficha  Ceneri Vulcaniche






- Altitudine del aeroporto : 29 ft
- Codice IATA : SVG


ENZV - Sola

ULTIMO METAR :
  • 301750Z 33011KT 9999 FEW035 06/M01 Q1030 NOSIG

METARs OBSOLETI :
  • 301720Z 33012KT 9999 FEW035 07/M01 Q1030
  • 301650Z 33014KT 9999 FEW035 07/M01 Q1030 NOSIG
  • 301620Z 33011KT 9999 FEW035 08/M01 Q1030 NOSIG
  • 301550Z 33011KT 9999 FEW035 08/M01 Q1030 NOSIG

TAF TAF ENZV
Valido dal 30 a 18 ore il 31 a 18 ore UTC


3018/3118 34008KT 9999 FEW030
BECMG 3106/3109 28012KT
TEMPO 3106/3112 4000 RADZ BKN008



MetMap, La meteo Aeronautica in un colpo d'occhio ! - Copyright ORBIFLY Dicembre 2007 - Disclaimer

ORBIFLY MET'MAP TEAM :

Programmazione e sviluppo : Alexandra Zaïnal
Concezione : Baudouin d'Aumeries
Aiuto per la programmazione : Marc-Olivier Méhu
Supporto tecnico e logistico : Manuel Goepfert
Aiuto per la traduzione : Arnaldo La Scala

Contatto : metmap@orbifly.com




FONTI E CREDITI :

   NOAA